createdAt,value
2023-01-13T00:01:24.781Z,1.75
2023-01-13T00:03:52.618Z,1.80
2023-01-13T00:06:22.425Z,1.77
2023-01-13T00:08:50.348Z,1.79
2023-01-13T00:11:18.939Z,1.81
2023-01-13T00:13:45.977Z,1.75
2023-01-13T00:16:18.349Z,1.71
2023-01-13T00:18:45.994Z,1.63
2023-01-13T00:21:21.416Z,1.57
2023-01-13T00:23:49.326Z,1.49
2023-01-13T00:26:21.799Z,1.50
2023-01-13T00:28:49.909Z,1.53
2023-01-13T00:31:19.261Z,1.55
2023-01-13T00:33:48.312Z,1.50
2023-01-13T00:36:16.188Z,1.42
2023-01-13T00:38:44.785Z,1.52
2023-01-13T00:41:14.166Z,1.52
2023-01-13T00:43:41.985Z,1.53
2023-01-13T00:46:10.891Z,1.37
2023-01-13T00:48:38.053Z,1.41
2023-01-13T00:51:12.078Z,1.38
2023-01-13T00:53:40.931Z,1.41
2023-01-13T00:56:14.461Z,1.49
2023-01-13T00:58:42.728Z,1.59
2023-01-13T01:01:23.449Z,1.69
2023-01-13T01:03:52.123Z,1.80
2023-01-13T01:06:22.588Z,1.81
2023-01-13T01:08:50.225Z,1.82
2023-01-13T01:11:20.029Z,1.84
2023-01-13T01:13:52.500Z,1.93
2023-01-13T01:16:21.224Z,1.97
2023-01-13T01:18:49.775Z,1.98
2023-01-13T01:21:17.563Z,1.93
2023-01-13T01:23:45.152Z,1.97
2023-01-13T01:26:21.642Z,1.97
2023-01-13T01:28:48.863Z,1.97
2023-01-13T01:31:25.527Z,1.95
2023-01-13T01:33:54.044Z,1.98
2023-01-13T01:36:22.391Z,1.98
2023-01-13T01:38:49.584Z,1.99
2023-01-13T01:41:22.913Z,1.97
2023-01-13T01:44:04.205Z,1.98
2023-01-13T01:46:41.326Z,1.97
2023-01-13T01:49:17.751Z,2.02
2023-01-13T01:51:57.029Z,2.05
2023-01-13T01:55:07.579Z,2.09
2023-01-13T01:57:59.952Z,1.96
2023-01-13T02:00:29.003Z,2.12
2023-01-13T02:02:57.520Z,2.24
2023-01-13T02:05:24.830Z,2.17
2023-01-13T02:07:54.027Z,2.20
2023-01-13T02:10:23.572Z,2.31
2023-01-13T02:12:51.035Z,2.36
2023-01-13T02:15:23.421Z,2.39
2023-01-13T02:17:56.777Z,2.41
2023-01-13T02:20:42.480Z,2.42
2023-01-13T02:23:52.511Z,2.41
2023-01-13T02:26:34.820Z,2.39
2023-01-13T02:29:42.752Z,2.43
2023-01-13T02:32:24.057Z,2.52
2023-01-13T02:35:16.893Z,2.52
2023-01-13T02:37:44.204Z,2.48
2023-01-13T02:40:28.901Z,2.47
2023-01-13T02:43:57.185Z,2.47
2023-01-13T02:46:31.236Z,2.50
2023-01-13T02:49:01.537Z,2.58
2023-01-13T02:51:30.154Z,2.56
2023-01-13T02:54:01.649Z,2.61
2023-01-13T02:56:29.913Z,2.60
2023-01-13T02:58:57.846Z,2.60
2023-01-13T03:01:25.451Z,2.75
2023-01-13T03:03:53.105Z,2.77
2023-01-13T03:06:29.912Z,2.64
2023-01-13T03:09:20.975Z,2.69
2023-01-13T03:11:58.855Z,2.69
2023-01-13T03:14:34.899Z,2.67
2023-01-13T03:17:26.358Z,2.58
2023-01-13T03:20:06.940Z,2.64
2023-01-13T03:22:41.164Z,2.62
2023-01-13T03:25:18.139Z,2.73
2023-01-13T03:27:58.076Z,2.66
2023-01-13T03:30:41.124Z,2.65
2023-01-13T03:33:56.926Z,2.69
2023-01-13T03:36:26.485Z,2.62
2023-01-13T03:39:03.947Z,2.61
2023-01-13T03:41:37.211Z,2.70
2023-01-13T03:44:23.432Z,2.72
2023-01-13T03:47:03.967Z,2.80
2023-01-13T03:49:43.853Z,2.70
2023-01-13T03:52:15.989Z,2.74
2023-01-13T03:54:58.876Z,2.78
2023-01-13T03:57:30.293Z,2.76
2023-01-13T03:59:59.692Z,2.74
2023-01-13T04:02:47.868Z,2.74
2023-01-13T04:05:15.823Z,2.70
2023-01-13T04:07:48.301Z,2.69
2023-01-13T04:10:20.508Z,2.62
2023-01-13T04:13:04.933Z,2.66
2023-01-13T04:15:38.511Z,2.74
2023-01-13T04:18:21.954Z,2.75
2023-01-13T04:20:51.035Z,2.89
2023-01-13T04:23:19.083Z,2.89
2023-01-13T04:25:47.378Z,2.90
2023-01-13T04:28:15.796Z,2.78
2023-01-13T04:30:43.422Z,2.83
2023-01-13T04:33:11.511Z,2.82
2023-01-13T04:35:39.005Z,2.76
2023-01-13T04:38:11.929Z,2.80
2023-01-13T04:40:40.287Z,2.70
2023-01-13T04:43:07.616Z,2.64
2023-01-13T04:45:34.695Z,2.61
2023-01-13T04:48:02.519Z,2.56
2023-01-13T04:50:29.659Z,2.56
2023-01-13T04:52:56.920Z,2.58
2023-01-13T04:55:25.042Z,2.53
2023-01-13T04:57:52.452Z,2.49
2023-01-13T05:00:21.855Z,2.45
2023-01-13T05:02:51.116Z,2.35
2023-01-13T05:05:18.871Z,2.42
2023-01-13T05:07:46.359Z,2.49
2023-01-13T05:10:13.921Z,2.53
2023-01-13T05:12:59.934Z,2.45
2023-01-13T05:15:45.976Z,2.44
2023-01-13T05:18:13.587Z,2.43
2023-01-13T05:20:40.862Z,2.35
2023-01-13T05:23:26.572Z,2.32
2023-01-13T05:25:54.132Z,2.27
2023-01-13T05:28:21.150Z,2.23
2023-01-13T05:30:49.806Z,2.27
2023-01-13T05:33:18.962Z,2.31
2023-01-13T05:35:46.818Z,2.34
2023-01-13T05:38:14.221Z,2.33
2023-01-13T05:41:00.660Z,2.20
2023-01-13T05:43:28.210Z,2.23
2023-01-13T05:46:08.833Z,2.25
2023-01-13T05:48:38.216Z,2.37
2023-01-13T05:51:07.489Z,2.51
2023-01-13T05:53:35.349Z,2.53
2023-01-13T05:56:07.081Z,2.53
2023-01-13T05:58:34.609Z,2.39
2023-01-13T06:01:08.533Z,2.43
2023-01-13T06:03:37.021Z,2.51
2023-01-13T06:06:04.586Z,2.47
2023-01-13T06:08:32.129Z,2.56
2023-01-13T06:10:59.653Z,2.66
2023-01-13T06:13:26.995Z,2.77
2023-01-13T06:15:58.118Z,2.77
2023-01-13T06:18:25.573Z,2.81
2023-01-13T06:20:52.735Z,2.87
2023-01-13T06:23:20.146Z,2.84
2023-01-13T06:26:20.927Z,2.75
2023-01-13T06:28:49.991Z,2.55
2023-01-13T06:31:17.425Z,2.61
2023-01-13T06:33:57.973Z,2.72
2023-01-13T06:36:32.380Z,2.58
2023-01-13T06:38:59.769Z,2.65
2023-01-13T06:41:46.515Z,2.75
2023-01-13T06:44:13.801Z,2.71
2023-01-13T06:46:41.231Z,2.77
2023-01-13T06:49:08.922Z,2.78
2023-01-13T06:51:35.943Z,2.77
2023-01-13T06:54:04.100Z,2.62
2023-01-13T06:56:31.186Z,2.55
2023-01-13T06:58:58.403Z,2.51
2023-01-13T07:01:28.707Z,2.46
2023-01-13T07:03:56.167Z,2.39
2023-01-13T07:06:23.214Z,2.53
2023-01-13T07:08:50.544Z,2.57
2023-01-13T07:11:17.657Z,2.55
2023-01-13T07:14:03.047Z,2.48
2023-01-13T07:16:30.493Z,2.52
2023-01-13T07:18:57.500Z,2.71
2023-01-13T07:21:24.510Z,2.59
2023-01-13T07:23:51.837Z,2.66
2023-01-13T07:26:18.864Z,2.81
2023-01-13T07:28:45.870Z,2.91
2023-01-13T07:31:18.478Z,2.97
2023-01-13T07:33:45.670Z,3.14
2023-01-13T07:36:14.186Z,3.30
2023-01-13T07:38:41.539Z,3.37
2023-01-13T07:41:30.983Z,3.41
2023-01-13T07:44:05.470Z,3.36
2023-01-13T07:46:32.858Z,3.55
2023-01-13T07:49:01.489Z,3.46
2023-01-13T07:51:28.537Z,3.58
2023-01-13T07:53:55.674Z,3.61
2023-01-13T07:56:23.007Z,3.84
2023-01-13T07:58:51.150Z,3.92
2023-01-13T08:01:19.039Z,3.97
2023-01-13T08:03:46.417Z,3.87
2023-01-13T08:06:14.308Z,4.01
2023-01-13T08:08:41.308Z,4.08
2023-01-13T08:11:10.058Z,3.96
2023-01-13T08:13:37.353Z,3.82
2023-01-13T08:16:06.974Z,3.72
2023-01-13T08:18:36.534Z,3.89
2023-01-13T08:21:06.337Z,3.89
2023-01-13T08:23:33.828Z,3.97
2023-01-13T08:26:03.130Z,3.83
2023-01-13T08:28:31.289Z,3.54
2023-01-13T08:31:06.155Z,3.44
2023-01-13T08:33:34.182Z,3.46
2023-01-13T08:46:44.696Z,3.37
2023-01-13T08:49:12.429Z,3.37
2023-01-13T08:51:39.575Z,2.82
2023-01-13T08:54:06.643Z,2.63
2023-01-13T08:56:35.584Z,2.48
2023-01-13T08:59:03.069Z,2.57
2023-01-13T09:01:30.310Z,2.64
2023-01-13T09:03:57.849Z,2.72
2023-01-13T09:06:24.891Z,2.83
2023-01-13T09:08:52.127Z,2.89
2023-01-13T09:11:40.532Z,2.99
2023-01-13T09:14:07.598Z,3.19
2023-01-13T09:16:37.036Z,3.26
2023-01-13T09:19:04.215Z,3.20
2023-01-13T09:21:31.396Z,3.30
2023-01-13T09:23:58.842Z,3.36
2023-01-13T09:26:25.892Z,3.46
2023-01-13T09:28:53.022Z,3.37
2023-01-13T09:31:20.625Z,3.47
2023-01-13T09:34:06.821Z,3.65
2023-01-13T09:36:34.662Z,3.57
2023-01-13T09:39:01.819Z,3.85
2023-01-13T09:41:50.052Z,3.78
2023-01-13T09:44:22.448Z,3.81
2023-01-13T09:46:53.355Z,3.58
2023-01-13T09:49:26.298Z,3.45
2023-01-13T09:52:12.035Z,3.65
2023-01-13T09:55:06.453Z,3.55
2023-01-13T09:57:37.713Z,3.60
2023-01-13T10:00:12.382Z,3.77
2023-01-13T10:02:45.740Z,3.96
2023-01-13T10:05:34.501Z,3.95
2023-01-13T10:08:06.577Z,3.99
2023-01-13T10:10:46.641Z,3.90
2023-01-13T10:13:26.456Z,4.12
2023-01-13T10:16:03.257Z,4.04
2023-01-13T10:18:37.293Z,4.28
2023-01-13T10:21:23.065Z,4.46
2023-01-13T10:23:57.329Z,4.14
2023-01-13T10:26:25.256Z,4.29
2023-01-13T10:28:54.259Z,4.66
2023-01-13T10:31:22.938Z,4.65
2023-01-13T10:33:58.425Z,4.49
2023-01-13T10:36:25.825Z,4.44
2023-01-13T10:38:56.168Z,4.51
2023-01-13T10:41:26.972Z,4.43
2023-01-13T10:44:05.937Z,4.56
2023-01-13T10:46:36.328Z,4.46
2023-01-13T10:49:19.408Z,4.30
2023-01-13T10:51:47.258Z,4.18
2023-01-13T10:54:23.156Z,4.19
2023-01-13T10:57:19.876Z,3.87
2023-01-13T10:59:48.415Z,3.73
2023-01-13T11:02:30.689Z,3.60
2023-01-13T11:05:22.851Z,3.66
2023-01-13T11:07:52.550Z,3.67
2023-01-13T11:10:27.624Z,3.57
2023-01-13T11:13:19.753Z,3.52
2023-01-13T11:15:51.316Z,3.61
2023-01-13T11:18:22.209Z,3.65
2023-01-13T11:20:50.592Z,3.63
2023-01-13T11:23:21.868Z,3.62
2023-01-13T11:25:53.230Z,3.59
2023-01-13T11:28:26.842Z,3.73
2023-01-13T11:30:57.819Z,3.44
2023-01-13T11:33:30.968Z,3.40
2023-01-13T11:36:09.168Z,3.43
2023-01-13T11:38:55.780Z,3.58
2023-01-13T11:42:07.914Z,3.53
2023-01-13T11:44:45.525Z,3.49
2023-01-13T11:47:13.715Z,3.47
2023-01-13T11:49:41.821Z,3.58
2023-01-13T11:52:45.011Z,3.56
2023-01-13T11:55:18.287Z,3.71
2023-01-13T11:58:38.805Z,3.54
2023-01-13T12:01:25.908Z,3.71
2023-01-13T12:04:06.279Z,3.58
2023-01-13T12:06:36.470Z,3.51
2023-01-13T12:09:25.055Z,3.53
2023-01-13T12:12:33.490Z,3.50
2023-01-13T12:15:30.146Z,3.66
2023-01-13T12:18:25.018Z,3.63
2023-01-13T12:21:04.690Z,3.64
2023-01-13T12:23:47.892Z,3.55
2023-01-13T12:26:16.762Z,3.52
2023-01-13T12:29:03.616Z,3.53
2023-01-13T12:31:32.027Z,3.72
2023-01-13T12:34:19.293Z,3.76
2023-01-13T12:37:14.727Z,3.91
2023-01-13T12:39:47.716Z,3.90
2023-01-13T12:42:38.900Z,3.55
2023-01-13T12:45:11.533Z,3.57
2023-01-13T12:47:43.557Z,3.77
2023-01-13T12:50:23.676Z,3.62
2023-01-13T12:52:52.098Z,3.66
2023-01-13T12:55:24.717Z,3.72
2023-01-13T12:57:59.170Z,3.78
2023-01-13T13:00:41.395Z,3.80
2023-01-13T13:03:15.824Z,3.76
2023-01-13T13:05:56.972Z,3.94
2023-01-13T13:08:51.670Z,4.02
2023-01-13T13:11:53.861Z,3.96
2023-01-13T13:14:39.388Z,3.94
2023-01-13T13:17:34.119Z,3.93
2023-01-13T13:20:01.922Z,3.78
2023-01-13T13:22:41.767Z,3.80
2023-01-13T13:25:21.616Z,3.68
2023-01-13T13:28:12.075Z,3.71
2023-01-13T13:30:45.851Z,3.61
2023-01-13T13:33:29.961Z,3.90
2023-01-13T13:36:15.362Z,3.93
2023-01-13T13:39:29.389Z,4.03
2023-01-13T13:42:28.896Z,4.16
2023-01-13T13:45:15.498Z,4.28
2023-01-13T13:47:43.045Z,4.27
2023-01-13T13:50:16.232Z,4.21
2023-01-13T13:52:54.122Z,4.22
2023-01-13T13:55:25.004Z,4.19
2023-01-13T13:57:54.486Z,4.26
2023-01-13T14:00:30.641Z,4.24
2023-01-13T14:03:01.490Z,4.29
2023-01-13T14:05:34.525Z,4.35
2023-01-13T14:08:18.056Z,4.37
2023-01-13T14:10:46.272Z,4.30
2023-01-13T14:13:31.786Z,4.37
2023-01-13T14:16:00.003Z,4.41
2023-01-13T14:18:28.864Z,4.62
2023-01-13T14:20:59.984Z,4.68
2023-01-13T14:23:29.820Z,4.56
2023-01-13T14:26:13.100Z,4.55
2023-01-13T14:28:41.018Z,4.62
2023-01-13T14:31:09.440Z,4.50
2023-01-13T14:33:38.868Z,4.55
2023-01-13T14:36:32.740Z,4.59
2023-01-13T14:39:02.809Z,4.64
2023-01-13T14:41:33.786Z,4.81
2023-01-13T14:44:02.808Z,4.86
2023-01-13T14:46:38.548Z,4.87
2023-01-13T14:49:05.863Z,4.70
2023-01-13T14:51:33.234Z,4.75
2023-01-13T14:54:00.349Z,4.79
2023-01-13T14:56:42.764Z,4.75
2023-01-13T14:59:56.183Z,4.70
2023-01-13T15:02:29.758Z,4.55
2023-01-13T15:05:20.316Z,4.56
2023-01-13T15:08:00.796Z,4.41
2023-01-13T15:10:37.205Z,4.42
2023-01-13T15:13:06.302Z,4.32
2023-01-13T15:15:38.178Z,4.39
2023-01-13T15:18:14.618Z,4.39
2023-01-13T15:20:42.678Z,4.43
2023-01-13T15:23:09.835Z,4.30
2023-01-13T15:25:42.165Z,4.29
2023-01-13T15:28:26.090Z,4.35
2023-01-13T15:30:54.676Z,4.36
2023-01-13T15:33:22.746Z,4.26
2023-01-13T15:35:51.635Z,4.29
2023-01-13T15:38:21.021Z,4.22
2023-01-13T15:40:49.995Z,4.08
2023-01-13T15:43:39.127Z,3.92
2023-01-13T15:46:32.630Z,4.00
2023-01-13T15:49:42.484Z,3.94
2023-01-13T15:52:21.876Z,3.93
2023-01-13T15:54:54.582Z,3.80
2023-01-13T15:57:25.983Z,3.91
2023-01-13T15:59:58.378Z,3.81
2023-01-13T16:02:29.803Z,3.85
2023-01-13T16:04:57.443Z,3.83
2023-01-13T16:07:25.385Z,3.94
2023-01-13T16:09:52.960Z,3.87
2023-01-13T16:12:20.358Z,3.96
2023-01-13T16:14:47.624Z,4.00
2023-01-13T16:17:27.345Z,4.05
2023-01-13T16:19:54.751Z,4.07
2023-01-13T16:22:24.075Z,4.04
2023-01-13T16:24:51.264Z,4.02
2023-01-13T16:27:21.149Z,4.06
2023-01-13T16:29:49.236Z,4.01
2023-01-13T16:32:17.076Z,3.96
2023-01-13T16:34:44.451Z,3.95
2023-01-13T16:37:23.886Z,4.04
2023-01-13T16:39:52.260Z,3.99
2023-01-13T16:42:20.210Z,4.09
2023-01-13T16:44:48.534Z,4.01
2023-01-13T16:47:17.305Z,3.96
2023-01-13T16:49:45.475Z,3.96
2023-01-13T16:52:12.560Z,4.08
2023-01-13T16:54:39.979Z,4.11
2023-01-13T16:57:12.580Z,4.06
2023-01-13T16:59:40.021Z,4.14
2023-01-13T17:02:13.679Z,4.06
2023-01-13T17:04:43.983Z,3.99
2023-01-13T17:07:16.949Z,4.01
2023-01-13T17:09:44.428Z,4.07
2023-01-13T17:12:11.695Z,4.14
2023-01-13T17:14:38.768Z,4.00
2023-01-13T17:17:06.140Z,3.98
2023-01-13T17:19:33.218Z,3.86
2023-01-13T17:22:00.324Z,3.93
2023-01-13T17:24:31.252Z,3.95
2023-01-13T17:26:58.775Z,3.97
2023-01-13T17:29:27.115Z,4.03
2023-01-13T17:31:54.834Z,3.98
2023-01-13T17:34:21.958Z,4.04
2023-01-13T17:36:49.191Z,3.92
2023-01-13T17:39:21.890Z,3.92
2023-01-13T17:41:49.687Z,4.13
2023-01-13T17:44:18.933Z,4.13
2023-01-13T17:46:46.541Z,4.15
2023-01-13T17:49:15.606Z,4.16
2023-01-13T17:51:43.377Z,4.20
2023-01-13T17:54:12.303Z,4.17
2023-01-13T17:56:41.344Z,4.23
2023-01-13T17:59:10.895Z,4.29
2023-01-13T18:01:39.091Z,4.31
2023-01-13T18:04:07.028Z,4.37
2023-01-13T18:06:34.672Z,4.44
2023-01-13T18:09:01.809Z,4.44
2023-01-13T18:11:29.199Z,4.53
2023-01-13T18:14:00.296Z,4.52
2023-01-13T18:16:30.248Z,4.60
2023-01-13T18:19:18.544Z,4.68
2023-01-13T18:22:05.294Z,4.65
2023-01-13T18:24:51.170Z,4.59
2023-01-13T18:27:24.194Z,4.66
2023-01-13T18:29:56.067Z,4.65
2023-01-13T18:32:26.401Z,4.66
2023-01-13T18:35:04.773Z,4.43
2023-01-13T18:37:35.969Z,4.34
2023-01-13T18:40:05.162Z,4.34
2023-01-13T18:42:50.723Z,4.38
2023-01-13T18:45:19.909Z,4.38
2023-01-13T18:47:46.991Z,4.50
2023-01-13T18:50:14.154Z,4.34
2023-01-13T18:52:43.155Z,4.39
2023-01-13T18:55:10.288Z,4.41
2023-01-13T18:57:40.592Z,4.36
2023-01-13T19:00:13.912Z,4.43
2023-01-13T19:02:41.220Z,4.53
2023-01-13T19:05:10.174Z,4.44
2023-01-13T19:07:37.232Z,4.62
2023-01-13T19:10:06.279Z,4.70
2023-01-13T19:12:34.285Z,4.68
2023-01-13T19:15:01.973Z,4.72
2023-01-13T19:17:34.325Z,4.62
2023-01-13T19:20:02.106Z,4.75
2023-01-13T19:22:32.728Z,4.74
2023-01-13T19:25:00.715Z,4.70
2023-01-13T19:27:28.760Z,4.66
2023-01-13T19:30:00.521Z,4.76
2023-01-13T19:32:28.743Z,4.79
2023-01-13T19:34:59.272Z,4.89
2023-01-13T19:37:30.285Z,4.93
2023-01-13T19:39:59.891Z,4.83
2023-01-13T19:42:45.951Z,4.82
2023-01-13T19:45:27.208Z,4.92
2023-01-13T19:47:55.407Z,4.87
2023-01-13T19:50:22.860Z,4.92
2023-01-13T19:52:49.865Z,4.98
2023-01-13T19:55:17.238Z,5.04
2023-01-13T19:57:44.617Z,5.07
2023-01-13T20:00:14.206Z,4.97
2023-01-13T20:02:47.822Z,5.02
2023-01-13T20:05:21.090Z,5.07
2023-01-13T20:07:50.222Z,5.07
2023-01-13T20:10:21.452Z,5.10
2023-01-13T20:12:48.917Z,5.03
2023-01-13T20:15:16.009Z,5.10
2023-01-13T20:17:42.988Z,4.94
2023-01-13T20:20:10.831Z,4.88
2023-01-13T20:22:39.207Z,4.98
2023-01-13T20:25:07.304Z,4.90
2023-01-13T20:27:34.840Z,5.03
2023-01-13T20:30:01.823Z,5.03
2023-01-13T20:32:28.975Z,4.97
2023-01-13T20:34:56.270Z,4.91
2023-01-13T20:37:23.453Z,4.98
2023-01-13T20:39:50.618Z,4.99
2023-01-13T20:42:29.964Z,5.02
2023-01-13T20:45:00.440Z,5.00
2023-01-13T20:47:30.476Z,4.83
2023-01-13T20:49:58.901Z,4.83
2023-01-13T20:52:26.035Z,4.85
2023-01-13T20:54:53.453Z,4.99
2023-01-13T20:57:20.585Z,5.04
2023-01-13T20:59:47.607Z,5.04
2023-01-13T21:02:16.253Z,5.00
2023-01-13T21:04:43.787Z,5.09
2023-01-13T21:07:12.261Z,5.07
2023-01-13T21:09:39.833Z,5.10
2023-01-13T21:12:25.692Z,5.09
2023-01-13T21:15:11.629Z,5.12
2023-01-13T21:17:57.533Z,5.18
2023-01-13T21:20:24.861Z,5.29
2023-01-13T21:22:53.095Z,5.10
2023-01-13T21:25:20.194Z,4.95
2023-01-13T21:27:47.611Z,4.74
2023-01-13T21:30:15.790Z,4.61
2023-01-13T21:32:46.741Z,4.77
2023-01-13T21:35:15.019Z,4.76
2023-01-13T21:37:43.289Z,4.79
2023-01-13T21:40:12.745Z,4.61
2023-01-13T21:42:58.982Z,4.38
2023-01-13T21:45:44.957Z,4.51
2023-01-13T21:48:12.469Z,4.63
2023-01-13T21:50:39.595Z,4.51
2023-01-13T21:53:07.962Z,4.36
2023-01-13T21:55:36.999Z,4.37
2023-01-13T21:58:14.696Z,4.46
2023-01-13T22:00:43.784Z,4.58
2023-01-13T22:03:16.061Z,4.65
2023-01-13T22:05:43.102Z,4.68
2023-01-13T22:08:12.422Z,4.76
2023-01-13T22:10:57.149Z,4.77
2023-01-13T22:13:43.723Z,4.78
2023-01-13T22:16:12.736Z,4.70
2023-01-13T22:18:40.201Z,4.69
2023-01-13T22:21:07.460Z,4.82
2023-01-13T22:23:34.532Z,4.72
2023-01-13T22:26:05.731Z,4.71
2023-01-13T22:28:34.221Z,4.86
2023-01-13T22:31:01.577Z,4.90
2023-01-13T22:33:28.588Z,4.93
2023-01-13T22:35:55.941Z,4.93
2023-01-13T22:38:24.149Z,4.87
2023-01-13T22:41:03.080Z,4.89
2023-01-13T22:43:30.941Z,4.89
2023-01-13T22:45:59.664Z,4.88
2023-01-13T22:48:27.538Z,4.77
2023-01-13T22:50:55.247Z,4.69
2023-01-13T22:53:22.574Z,4.60
2023-01-13T22:55:57.284Z,4.72
2023-01-13T22:58:25.253Z,4.81
2023-01-13T23:00:53.473Z,4.82
2023-01-13T23:03:22.518Z,4.85
2023-01-13T23:05:56.027Z,4.87
2023-01-13T23:08:23.097Z,4.80
2023-01-13T23:10:50.848Z,4.88
2023-01-13T23:13:17.885Z,4.90
2023-01-13T23:15:45.335Z,4.90
2023-01-13T23:18:12.643Z,4.97
2023-01-13T23:20:39.704Z,4.87
2023-01-13T23:23:07.071Z,4.81
2023-01-13T23:25:34.467Z,4.86
2023-01-13T23:28:01.612Z,4.94
2023-01-13T23:30:28.731Z,4.96
2023-01-13T23:32:56.176Z,4.98
2023-01-13T23:35:23.258Z,5.01
2023-01-13T23:37:50.317Z,5.00
2023-01-13T23:40:17.855Z,5.07
2023-01-13T23:42:44.979Z,5.06
2023-01-13T23:45:12.083Z,5.07
2023-01-13T23:47:39.461Z,5.09
2023-01-13T23:50:06.657Z,5.08
2023-01-13T23:52:33.646Z,5.05
2023-01-13T23:55:01.061Z,5.01
2023-01-13T23:57:28.465Z,4.98
2023-01-13T23:59:55.637Z,4.94
